Ernest Shackleton — ZDLS1 — position and weather

sailwx.info

Track history (hours):
 
Tides and Currents Weather Stations Pressure Air Temp Water Temp Dewpoint Dewpoint Depression Visibility Wind Speed Wind Dir Waves Ship Positions

Oceanographic research ship Ernest Shackleton (UK/Norway)

Detailed information on ship capabilities available from University of Delaware's Ocean Information Center and ARCUS's ALIAS (Arctic Logistics Information and Support) project.

Last reported at 2014-Dec-22 10:00 UTC. Time now 2014-Dec-22 12:05 UTC.
Position S 72°42' W 019°12'.

Length 80 m; beam 17 m; draft 7.4 m.

Type: Other ship. MMSI: 740357000.

AWS

Barometer 986.8 mb
Air temperature -0.7 ° C
Dewpoint -3.9 ° C

Date/timePositionNaut miles runAvg speedWind from/ knotsBaromVisibWave heightAir tempDewpointWater temp
2014-Dec-22 10:00S 72°42' W 019°12'7 7.0 986.8 -0.7-3.9
2014-Dec-22 09:00S 72°36' W 019°00'0 0.0 986.9 -1.6-2.5
2014-Dec-22 07:00S 72°36' W 019°00'2 1.8 986.4 -3.3 0.7
2014-Dec-22 06:00S 72°36' W 018°54'0 0.0 986.4 -3.9 1.9
2014-Dec-22 04:00S 72°36' W 018°54'2 1.8 986.3 -3.5 2.1
2014-Dec-22 03:00S 72°36' W 018°48'0 0.0 986.4 -3.3 1.8
2014-Dec-22 02:00S 72°36' W 018°48'2 0.9 986.5 -2.9 1.4
2014-Dec-22 00:00S 72°36' W 018°42'0 0.0 986.3 -3.3 1.6
2014-Dec-21 23:00S 72°36' W 018°42'6 6.0 986.3 -2.8 0.5
2014-Dec-21 22:00S 72°30' W 018°42'0 0.0 985.9 -1.7-1.2
2014-Dec-21 21:00S 72°30' W 018°42'2 0.9 985.8 -1.6-1.5
2014-Dec-21 19:00S 72°30' W 018°36'0 0.0 985.2 -1.2-2.2
2014-Dec-21 18:00S 72°30' W 018°36'0 0.0 985.1 -1.2-2.2
2014-Dec-21 17:00S 72°30' W 018°36'0 0.0 985.0 -1.4-2.0
2014-Dec-21 16:00S 72°30' W 018°36'0 0.0 984.9 -0.9-2.8
2014-Dec-21 14:00S 72°30' W 018°36'0 0.0 985.0 -1.9-1.8
2014-Dec-21 13:00S 72°30' W 018°36'2 1.8 984.9 -1.9-1.7
2014-Dec-21 12:00S 72°30' W 018°30'0 0.0 985.0 -3.0 0.2
2014-Dec-21 11:00S 72°30' W 018°30'0 0.0 985.0 -3.6 1.0
2014-Dec-21 10:00S 72°30' W 018°30'0 0.0 984.9 -3.2 0.6
2014-Dec-21 09:00S 72°30' W 018°30'2 0.9 984.6 -3.4 1.1
2014-Dec-21 07:00S 72°30' W 018°24'0 0.0 984.4 -3.6 2.0
2014-Dec-21 04:00S 72°30' W 018°24'2 0.9 984.3 -4.0 2.5
2014-Dec-21 02:00S 72°30' W 018°18'0 0.0 985.0 -3.9 2.4
2014-Dec-21 01:00S 72°30' W 018°18'0 0.0 985.3 -3.6 2.1
2014-Dec-21 00:00S 72°30' W 018°18'0 0.0 985.5 -2.7 0.7
2014-Dec-20 23:00S 72°30' W 018°18'2 1.8 985.6 -2.6 0.6
2014-Dec-20 22:00S 72°30' W 018°12'0 0.0 985.7 -1.9 0.2
2014-Dec-20 21:00S 72°30' W 018°12'0 0.0 985.9 -1.2-0.8
2014-Dec-20 20:00S 72°30' W 018°12'0 0.0 986.0 -1.0-1.4
2014-Dec-20 19:00S 72°30' W 018°12'0 0.0 985.8 -0.8-1.5
2014-Dec-20 18:00S 72°30' W 018°12'0 0.0 985.7 -0.7-1.7
2014-Dec-20 17:00S 72°30' W 018°12'0 0.0 985.6 0.1-2.2
2014-Dec-20 16:00S 72°30' W 018°12'0 0.0 985.9 0.2-2.5
2014-Dec-20 14:00S 72°30' W 018°12'0 0.0 986.3 -0.4-2.1
2014-Dec-20 13:00S 72°30' W 018°12'2 1.8 986.4 -0.7-1.5
2014-Dec-20 12:00S 72°30' W 018°06'0 0.0 986.5 -1.1-1.1
2014-Dec-20 10:00S 72°30' W 018°06'   986.6 -2.2 0.2
Track history (hours):
 
Tides and Currents Weather Stations Pressure Air Temp Water Temp Dewpoint Dewpoint Depression Visibility Wind Speed Wind Dir Waves Ship Positions

Oceanographic research ship Ernest Shackleton (UK/Norway)

Detailed information on ship capabilities available from University of Delaware's Ocean Information Center and ARCUS's ALIAS (Arctic Logistics Information and Support) project.

Last reported at 2014-Dec-22 10:00 UTC. Time now 2014-Dec-22 12:05 UTC.
Position S 72°42' W 019°12'.

Length 80 m; beam 17 m; draft 7.4 m.

Type: Other ship. MMSI: 740357000.

AWS

Barometer 986.8 mb
Air temperature -0.7 ° C
Dewpoint -3.9 ° C

Date/timePositionNaut miles runAvg speedWind from/ knotsBaromVisibWave heightAir tempDewpointWater temp
2014-Dec-22 10:00S 72°42' W 019°12'7 7.0 986.8 -0.7-3.9
2014-Dec-22 09:00S 72°36' W 019°00'0 0.0 986.9 -1.6-2.5
2014-Dec-22 07:00S 72°36' W 019°00'2 1.8 986.4 -3.3 0.7
2014-Dec-22 06:00S 72°36' W 018°54'0 0.0 986.4 -3.9 1.9
2014-Dec-22 04:00S 72°36' W 018°54'2 1.8 986.3 -3.5 2.1
2014-Dec-22 03:00S 72°36' W 018°48'0 0.0 986.4 -3.3 1.8
2014-Dec-22 02:00S 72°36' W 018°48'2 0.9 986.5 -2.9 1.4
2014-Dec-22 00:00S 72°36' W 018°42'0 0.0 986.3 -3.3 1.6
2014-Dec-21 23:00S 72°36' W 018°42'6 6.0 986.3 -2.8 0.5
2014-Dec-21 22:00S 72°30' W 018°42'0 0.0 985.9 -1.7-1.2
2014-Dec-21 21:00S 72°30' W 018°42'2 0.9 985.8 -1.6-1.5
2014-Dec-21 19:00S 72°30' W 018°36'0 0.0 985.2 -1.2-2.2
2014-Dec-21 18:00S 72°30' W 018°36'0 0.0 985.1 -1.2-2.2
2014-Dec-21 17:00S 72°30' W 018°36'0 0.0 985.0 -1.4-2.0
2014-Dec-21 16:00S 72°30' W 018°36'0 0.0 984.9 -0.9-2.8
2014-Dec-21 14:00S 72°30' W 018°36'0 0.0 985.0 -1.9-1.8
2014-Dec-21 13:00S 72°30' W 018°36'2 1.8 984.9 -1.9-1.7
2014-Dec-21 12:00S 72°30' W 018°30'0 0.0 985.0 -3.0 0.2
2014-Dec-21 11:00S 72°30' W 018°30'0 0.0 985.0 -3.6 1.0
2014-Dec-21 10:00S 72°30' W 018°30'0 0.0 984.9 -3.2 0.6
2014-Dec-21 09:00S 72°30' W 018°30'2 0.9 984.6 -3.4 1.1
2014-Dec-21 07:00S 72°30' W 018°24'0 0.0 984.4 -3.6 2.0
2014-Dec-21 04:00S 72°30' W 018°24'2 0.9 984.3 -4.0 2.5
2014-Dec-21 02:00S 72°30' W 018°18'0 0.0 985.0 -3.9 2.4
2014-Dec-21 01:00S 72°30' W 018°18'0 0.0 985.3 -3.6 2.1
2014-Dec-21 00:00S 72°30' W 018°18'0 0.0 985.5 -2.7 0.7
2014-Dec-20 23:00S 72°30' W 018°18'2 1.8 985.6 -2.6 0.6
2014-Dec-20 22:00S 72°30' W 018°12'0 0.0 985.7 -1.9 0.2
2014-Dec-20 21:00S 72°30' W 018°12'0 0.0 985.9 -1.2-0.8
2014-Dec-20 20:00S 72°30' W 018°12'0 0.0 986.0 -1.0-1.4
2014-Dec-20 19:00S 72°30' W 018°12'0 0.0 985.8 -0.8-1.5
2014-Dec-20 18:00S 72°30' W 018°12'0 0.0 985.7 -0.7-1.7
2014-Dec-20 17:00S 72°30' W 018°12'0 0.0 985.6 0.1-2.2
2014-Dec-20 16:00S 72°30' W 018°12'0 0.0 985.9 0.2-2.5
2014-Dec-20 14:00S 72°30' W 018°12'0 0.0 986.3 -0.4-2.1
2014-Dec-20 13:00S 72°30' W 018°12'2 1.8 986.4 -0.7-1.5
2014-Dec-20 12:00S 72°30' W 018°06'0 0.0 986.5 -1.1-1.1
2014-Dec-20 10:00S 72°30' W 018°06'   986.6 -2.2 0.2

Dump ship's entire track history